TimeCDT,TemperatureF,Dew PointF,Humidity,Sea Level PressureIn,VisibilityMPH,Wind Direction,Wind SpeedMPH,Gust SpeedMPH,PrecipitationIn,Events,Conditions,WindDirDegrees,DateUTC
12:13 AM,59.0,55.4,88,29.92,2.5,North,6.9,-,N/A,,Overcast,10,2013-10-04 05:13:00
12:33 AM,59.0,55.4,88,29.92,4.0,NNE,5.8,-,N/A,,Overcast,20,2013-10-04 05:33:00
12:53 AM,59.0,55.4,88,29.91,3.0,NNE,8.1,-,N/A,,Overcast,20,2013-10-04 05:53:00
1:13 AM,59.0,55.4,88,29.91,4.0,NNE,10.4,-,N/A,,Overcast,30,2013-10-04 06:13:00
1:33 AM,59.0,55.4,88,29.92,3.0,NNE,10.4,-,N/A,,Overcast,30,2013-10-04 06:33:00
1:53 AM,59.0,55.4,88,29.92,2.5,NNE,11.5,-,N/A,,Overcast,20,2013-10-04 06:53:00
2:13 AM,59.0,55.4,88,29.93,2.0,NNE,12.7,-,N/A,,Overcast,20,2013-10-04 07:13:00
2:33 AM,59.0,55.4,88,29.93,2.0,NNE,8.1,-,N/A,,Overcast,20,2013-10-04 07:33:00
2:53 AM,59.0,55.4,88,29.93,1.8,NNE,9.2,-,N/A,,Overcast,30,2013-10-04 07:53:00
3:13 AM,59.0,55.4,88,29.94,3.0,NNE,10.4,-,N/A,,Overcast,30,2013-10-04 08:13:00
3:33 AM,59.0,55.4,88,29.93,5.0,NNE,12.7,-,N/A,,Overcast,30,2013-10-04 08:33:00
3:53 AM,59.0,55.4,88,29.92,5.0,NNE,8.1,-,N/A,,Overcast,20,2013-10-04 08:53:00
4:13 AM,59.0,55.4,88,29.93,7.0,ENE,6.9,-,N/A,,Overcast,60,2013-10-04 09:13:00
4:33 AM,59.0,55.4,88,29.91,5.0,NE,9.2,-,N/A,,Overcast,40,2013-10-04 09:33:00
4:53 AM,59.0,55.4,88,29.93,5.0,NNE,9.2,-,N/A,,Overcast,30,2013-10-04 09:53:00
5:13 AM,59.0,55.4,88,29.92,2.5,NE,8.1,-,N/A,,Overcast,40,2013-10-04 10:13:00
5:33 AM,59.0,55.4,88,29.93,2.0,NNE,6.9,-,N/A,,Overcast,20,2013-10-04 10:33:00
5:53 AM,59.0,55.4,88,29.96,1.5,ESE,3.5,-,N/A,,Overcast,120,2013-10-04 10:53:00
6:13 AM,59.0,55.4,88,29.94,1.0,NNE,9.2,-,0.02,Rain,Heavy Rain,30,2013-10-04 11:13:00
6:33 AM,59.0,55.4,88,29.94,1.2,NNE,9.2,-,0.03,Rain,Rain,30,2013-10-04 11:33:00
6:53 AM,59.0,55.4,88,29.93,1.0,NE,8.1,-,0.03,,Light Drizzle,40,2013-10-04 11:53:00
7:13 AM,59.0,55.4,88,29.92,1.2,NE,10.4,-,N/A,,Light Drizzle,40,2013-10-04 12:13:00
7:33 AM,59.0,57.2,94,29.92,1.0,NNE,11.5,-,N/A,,Overcast,20,2013-10-04 12:33:00
7:53 AM,59.0,57.2,94,29.91,0.8,NNE,11.5,-,N/A,,Overcast,30,2013-10-04 12:53:00
8:13 AM,59.0,57.2,94,29.90,1.2,ENE,13.8,-,N/A,,Overcast,60,2013-10-04 13:13:00
8:33 AM,59.0,57.2,94,29.91,1.8,NE,10.4,-,N/A,,Overcast,50,2013-10-04 13:33:00
8:53 AM,59.0,57.2,94,29.91,1.8,NE,12.7,18.4,N/A,,Overcast,40,2013-10-04 13:53:00
9:13 AM,59.0,57.2,94,29.92,2.0,ENE,12.7,20.7,N/A,,Overcast,60,2013-10-04 14:13:00
9:33 AM,59.0,57.2,94,29.93,2.5,NE,11.5,-,N/A,,Overcast,40,2013-10-04 14:33:00
9:53 AM,59.0,57.2,94,29.93,3.0,ENE,15.0,19.6,N/A,,Overcast,70,2013-10-04 14:53:00
10:13 AM,59.0,57.2,94,29.93,3.0,East,13.8,-,N/A,,Overcast,80,2013-10-04 15:13:00
10:33 AM,59.0,57.2,94,29.93,2.5,ENE,10.4,18.4,N/A,,Overcast,60,2013-10-04 15:33:00
10:53 AM,59.0,57.2,94,29.93,2.5,NE,10.4,19.6,N/A,,Overcast,40,2013-10-04 15:53:00
11:13 AM,59.0,57.2,94,29.95,3.0,ENE,10.4,19.6,N/A,,Overcast,60,2013-10-04 16:13:00
11:33 AM,59.0,57.2,94,29.95,4.0,ENE,10.4,-,N/A,,Overcast,70,2013-10-04 16:33:00
11:53 AM,59.0,57.2,94,29.95,1.8,ENE,6.9,10.4,N/A,,Overcast,70,2013-10-04 16:53:00
12:14 PM,59.0,57.2,94,29.95,1.5,ENE,11.5,-,N/A,,Overcast,60,2013-10-04 17:14:00
12:33 PM,59.0,57.2,94,29.95,1.8,ENE,11.5,16.1,N/A,,Overcast,60,2013-10-04 17:33:00
12:53 PM,59.0,57.2,94,29.94,4.0,ENE,12.7,-,N/A,,Overcast,60,2013-10-04 17:53:00
1:13 PM,59.0,57.2,94,29.94,5.0,East,12.7,16.1,N/A,,Overcast,80,2013-10-04 18:13:00
1:33 PM,59.0,57.2,94,29.91,5.0,NE,13.8,18.4,N/A,,Overcast,50,2013-10-04 18:33:00
1:53 PM,59.0,59.0,100,29.91,5.0,ENE,10.4,17.3,N/A,,Overcast,60,2013-10-04 18:53:00
2:13 PM,59.0,59.0,100,29.90,4.0,ENE,9.2,21.9,N/A,,Overcast,70,2013-10-04 19:13:00
2:33 PM,60.8,59.0,94,29.89,5.0,ENE,11.5,19.6,N/A,,Overcast,60,2013-10-04 19:33:00
2:53 PM,59.0,59.0,100,29.90,5.0,ENE,10.4,20.7,N/A,,Overcast,70,2013-10-04 19:53:00
3:13 PM,60.8,59.0,94,29.90,5.0,ENE,15.0,19.6,N/A,,Overcast,70,2013-10-04 20:13:00
3:33 PM,59.0,59.0,100,29.90,5.0,ENE,15.0,19.6,N/A,,Overcast,60,2013-10-04 20:33:00
3:53 PM,60.8,59.0,94,29.90,4.0,ENE,10.4,-,N/A,,Overcast,60,2013-10-04 20:53:00
4:13 PM,60.8,59.0,94,29.90,4.0,ENE,11.5,-,N/A,,Overcast,60,2013-10-04 21:13:00
4:33 PM,60.8,59.0,94,29.88,4.0,NE,12.7,19.6,N/A,,Overcast,50,2013-10-04 21:33:00
4:54 PM,60.8,59.0,94,29.87,3.0,NE,15.0,20.7,N/A,,Overcast,50,2013-10-04 21:54:00
5:13 PM,60.8,59.0,94,29.88,3.0,ENE,9.2,-,N/A,Rain,Light Rain,60,2013-10-04 22:13:00
5:33 PM,59.0,57.2,94,29.87,3.0,ENE,13.8,18.4,N/A,,Overcast,70,2013-10-04 22:33:00
5:53 PM,59.0,57.2,94,29.88,3.0,ENE,12.7,20.7,N/A,,Overcast,60,2013-10-04 22:53:00
6:13 PM,59.0,57.2,94,29.88,1.5,ENE,10.4,18.4,N/A,Thunderstorm,Overcast,70,2013-10-04 23:13:00
6:34 PM,59.0,57.2,94,29.87,1.5,ENE,12.7,17.3,N/A,,Overcast,70,2013-10-04 23:34:00
6:53 PM,59.0,57.2,94,29.87,2.0,ENE,16.1,19.6,N/A,Thunderstorm,Overcast,60,2013-10-04 23:53:00
7:14 PM,59.0,57.2,94,29.86,1.8,ENE,15.0,21.9,N/A,Thunderstorm,Overcast,60,2013-10-05 00:14:00
7:34 PM,59.0,57.2,94,29.84,1.5,NE,16.1,20.7,N/A,Thunderstorm,Overcast,50,2013-10-05 00:34:00
7:53 PM,59.0,59.0,100,29.86,1.5,ENE,12.7,21.9,N/A,,Overcast,60,2013-10-05 00:53:00
8:13 PM,59.0,59.0,100,29.86,3.0,ENE,17.3,-,N/A,Rain-Thunderstorm,Rain,70,2013-10-05 01:13:00
8:34 PM,59.0,59.0,100,29.85,4.0,ENE,11.5,-,0.03,Rain,Light Rain,70,2013-10-05 01:34:00
8:53 PM,59.0,59.0,100,29.81,7.0,ENE,18.4,21.9,0.03,,Overcast,60,2013-10-05 01:53:00
9:13 PM,59.0,59.0,100,29.82,7.0,ENE,15.0,20.7,0.01,,Overcast,70,2013-10-05 02:13:00
9:34 PM,60.8,59.0,94,29.84,7.0,ENE,12.7,23.0,0.01,Thunderstorm,Overcast,70,2013-10-05 02:34:00
9:53 PM,60.8,59.0,94,29.81,7.0,ENE,16.1,21.9,0.01,Rain-Thunderstorm,Thunderstorms and Rain,70,2013-10-05 02:53:00
10:14 PM,60.8,59.0,94,29.81,7.0,ENE,12.7,20.7,N/A,Rain-Thunderstorm,Light Thunderstorms and Rain,60,2013-10-05 03:14:00
10:33 PM,60.8,59.0,94,29.82,7.0,NNE,9.2,-,0.01,Rain-Thunderstorm,Rain,30,2013-10-05 03:33:00
10:53 PM,60.8,59.0,94,29.81,7.0,NNE,15.0,20.7,0.03,Rain-Thunderstorm,Thunderstorms and Rain,20,2013-10-05 03:53:00
11:13 PM,60.8,59.0,94,29.86,1.2,NNE,17.3,-,0.25,Rain-Thunderstorm,Heavy Thunderstorms and Rain,20,2013-10-05 04:13:00
11:33 PM,60.8,59.0,94,29.83,7.0,NNE,15.0,-,0.27,Rain-Thunderstorm,Light Thunderstorms and Rain,20,2013-10-05 04:33:00
11:53 PM,59.0,59.0,100,29.80,10.0,ENE,16.1,24.2,0.27,,Mostly Cloudy,60,2013-10-05 04:53:00